Time;durP1;ratioP1;P1;durP2;ratioP2;P2;SDS_P1;SDS_P2;PMS_P1;PMS_P2;Temp;Humidity;BMP_temperature;BMP_pressure;BME280_temperature;BME280_humidity;BME280_pressure;Samples;Min_cycle;Max_cycle;Signal;HPM_P1;HPM_P2
2024/04/12 00:01:59;;;;;;;4.03;0.90;;;;;;;12.10;56.88;101944.63;11210461;26;20002;-61
2024/04/12 00:07:01;;;;;;;6.65;1.40;;;;;;;12.07;56.91;101951.16;11231998;26;19995;-60
2024/04/12 00:12:04;;;;;;;4.65;1.20;;;;;;;12.01;57.03;101942.81;11223470;26;20418;-61
2024/04/12 00:17:15;;;;;;;11.82;1.45;;;;;;;11.97;57.21;101944.97;11218196;26;20005;-61
2024/04/12 00:22:18;;;;;;;4.80;0.82;;;;;;;11.80;57.19;101951.91;11218991;26;20035;-61
2024/04/12 00:27:21;;;;;;;5.63;1.20;;;;;;;11.70;58.06;101951.06;11220826;26;20010;-61
2024/04/12 00:32:24;;;;;;;8.05;1.30;;;;;;;11.73;57.53;101948.09;11178764;26;20010;-61
2024/04/12 00:37:28;;;;;;;9.32;1.58;;;;;;;11.73;57.73;101948.09;11229829;26;20008;-61
2024/04/12 00:42:32;;;;;;;9.23;1.73;;;;;;;11.69;58.00;101950.22;11221819;26;20035;-61
2024/04/12 00:47:35;;;;;;;3.08;0.90;;;;;;;11.65;58.08;101950.63;11228048;26;20018;-61
2024/04/12 00:52:43;;;;;;;3.67;1.13;;;;;;;11.64;58.18;101957.03;11225632;26;19999;-61
2024/04/12 00:57:45;;;;;;;3.90;1.45;;;;;;;11.63;58.02;101953.50;11218524;26;19995;-61
2024/04/12 01:02:48;;;;;;;3.10;0.98;;;;;;;11.60;58.09;101944.84;11215788;26;20011;-61
2024/04/12 01:07:55;;;;;;;5.82;1.35;;;;;;;11.55;58.60;101947.94;11214494;26;20011;-61
2024/04/12 01:13:02;;;;;;;4.70;0.90;;;;;;;11.48;58.49;101938.75;11220695;26;20010;-60
2024/04/12 01:18:10;;;;;;;4.57;0.70;;;;;;;11.40;58.70;101935.94;11224720;26;20350;-60
2024/04/12 01:23:15;;;;;;;2.10;0.82;;;;;;;11.44;58.45;101932.81;11219095;26;20011;-60
2024/04/12 01:28:19;;;;;;;1.77;0.70;;;;;;;11.43;58.57;101928.44;11219023;26;20003;-60
2024/04/12 01:33:20;;;;;;;4.80;1.10;;;;;;;11.43;58.84;101925.75;11210309;26;20018;-60
2024/04/12 01:38:22;;;;;;;5.10;1.00;;;;;;;11.39;58.70;101916.22;11215866;26;20621;-60
2024/04/12 01:43:26;;;;;;;2.50;0.90;;;;;;;11.34;59.20;101920.34;11224242;26;20464;-60
2024/04/12 01:48:28;;;;;;;5.75;1.17;;;;;;;11.27;59.54;101918.19;11218199;26;19996;-60
2024/04/12 01:53:38;;;;;;;5.43;0.73;;;;;;;11.25;59.10;101922.03;11216562;26;19999;-60
2024/04/12 01:58:40;;;;;;;2.53;0.80;;;;;;;11.13;59.80;101929.41;11218521;26;19999;-60
2024/04/12 02:03:43;;;;;;;2.78;1.00;;;;;;;11.10;59.35;101924.31;11199157;26;20326;-60
2024/04/12 02:08:45;;;;;;;2.53;0.70;;;;;;;11.08;59.42;101923.59;11219379;26;19999;-60
2024/04/12 02:13:46;;;;;;;1.88;0.80;;;;;;;11.07;59.65;101924.56;11195381;26;20552;-59
2024/04/12 02:18:48;;;;;;;3.72;1.25;;;;;;;10.96;59.70;101920.19;11217309;26;21325;-60
2024/04/12 02:23:52;;;;;;;4.32;1.02;;;;;;;10.96;60.10;101936.34;11214934;26;19999;-60
2024/04/12 02:28:59;;;;;;;3.33;0.80;;;;;;;10.86;60.29;101941.69;11200295;26;20017;-59
2024/04/12 02:34:01;;;;;;;6.63;2.00;;;;;;;10.78;60.58;101946.91;11217489;26;19999;-60
2024/04/12 02:39:06;;;;;;;3.90;0.80;;;;;;;10.73;60.89;101943.78;11221488;26;20003;-60
2024/04/12 02:44:09;;;;;;;3.15;0.70;;;;;;;10.74;60.90;101934.72;11188109;26;20008;-60
2024/04/12 02:49:12;;;;;;;5.47;1.65;;;;;;;10.79;60.71;101935.16;11213503;26;20003;-60
2024/04/12 02:54:14;;;;;;;4.20;1.10;;;;;;;10.79;60.78;101924.41;11216701;26;20000;-59
2024/04/12 02:59:15;;;;;;;4.82;1.42;;;;;;;10.81;60.71;101914.34;11216430;26;20018;-59
2024/04/12 03:04:17;;;;;;;6.18;1.88;;;;;;;10.80;60.68;101925.25;11212324;26;20004;-60
2024/04/12 03:09:19;;;;;;;3.75;1.80;;;;;;;10.81;60.49;101921.56;11225626;26;20709;-59
2024/04/12 03:14:20;;;;;;;4.10;1.92;;;;;;;10.77;60.58;101926.38;11212370;26;20011;-60
2024/04/12 03:19:22;;;;;;;11.07;1.45;;;;;;;10.82;60.65;101924.13;11216315;26;20014;-59
2024/04/12 03:24:25;;;;;;;7.10;1.42;;;;;;;10.85;60.50;101928.38;11204255;26;20018;-60
2024/04/12 03:29:27;;;;;;;6.85;3.65;;;;;;;10.77;60.51;101930.91;11214431;26;20015;-60
2024/04/12 03:34:29;;;;;;;12.98;7.78;;;;;;;10.69;60.68;101920.84;11215973;26;20011;-61
2024/04/12 03:39:34;;;;;;;10.40;6.75;;;;;;;10.62;61.12;101923.22;11214082;26;20373;-57
2024/04/12 03:44:37;;;;;;;4.78;2.60;;;;;;;10.39;61.18;101935.19;11211750;26;20012;-59
2024/04/12 03:49:41;;;;;;;4.05;2.08;;;;;;;10.21;62.03;101922.34;11216927;26;19996;-59
2024/04/12 03:54:47;;;;;;;8.25;2.15;;;;;;;10.29;61.35;101927.06;11218854;26;20014;-58
2024/04/12 03:59:57;;;;;;;5.97;1.60;;;;;;;10.31;61.08;101923.28;11203229;26;20027;-59
2024/04/12 04:05:13;;;;;;;4.47;1.35;;;;;;;10.30;61.20;101909.97;11215884;26;20004;-61
2024/04/12 04:10:15;;;;;;;7.18;1.75;;;;;;;10.26;61.58;101900.44;11221360;26;20003;-59
2024/04/12 04:15:17;;;;;;;5.50;2.00;;;;;;;10.22;61.67;101926.72;11214516;26;20589;-58
2024/04/12 04:20:19;;;;;;;3.50;1.90;;;;;;;10.18;61.54;101927.13;11220228;26;20006;-59
2024/04/12 04:25:21;;;;;;;2.92;1.60;;;;;;;10.14;61.86;101918.50;11210762;26;20010;-59
2024/04/12 04:30:25;;;;;;;3.35;1.65;;;;;;;10.11;61.77;101918.75;11223042;26;20007;-59
2024/04/12 04:35:27;;;;;;;7.60;3.10;;;;;;;10.03;61.76;101911.38;11208452;26;20076;-62
2024/04/12 04:40:29;;;;;;;4.90;2.40;;;;;;;10.07;61.60;101910.13;11220291;26;20090;-62
2024/04/12 04:45:32;;;;;;;5.40;2.67;;;;;;;10.09;61.50;101910.84;11226199;26;20359;-61
2024/04/12 04:50:36;;;;;;;4.68;2.60;;;;;;;10.12;62.14;101920.47;11211376;26;19995;-61
2024/04/12 04:55:39;;;;;;;6.05;2.15;;;;;;;9.98;62.25;101928.88;11219034;26;20010;-60
2024/04/12 05:00:40;;;;;;;8.77;2.47;;;;;;;10.02;62.28;101908.81;11217696;26;20013;-60
2024/04/12 05:05:43;;;;;;;3.53;2.42;;;;;;;10.00;61.79;101926.91;11223271;26;19999;-60
2024/04/12 05:10:44;;;;;;;6.43;2.42;;;;;;;9.94;62.70;101928.28;11224917;26;20051;-60
2024/04/12 05:15:49;;;;;;;3.60;2.35;;;;;;;9.99;62.40;101930.56;11225200;26;20006;-60
2024/04/12 05:20:51;;;;;;;6.30;2.28;;;;;;;10.03;62.37;101940.94;11223835;26;20011;-60
2024/04/12 05:25:54;;;;;;;9.05;2.63;;;;;;;10.12;62.22;101948.19;11212151;26;20000;-60
2024/04/12 05:30:57;;;;;;;3.88;1.98;;;;;;;10.19;62.19;101951.19;11224933;26;20481;-63
2024/04/12 05:35:58;;;;;;;5.43;2.20;;;;;;;10.29;62.46;101945.88;11214406;26;20010;-67
2024/04/12 05:41:04;;;;;;;4.97;2.30;;;;;;;10.35;62.22;101953.44;11221982;26;20458;-63
2024/04/12 05:46:06;;;;;;;9.93;2.65;;;;;;;10.46;61.74;101957.84;11232577;26;20001;-63
2024/04/12 05:51:09;;;;;;;9.73;2.90;;;;;;;10.66;61.68;101950.69;11215371;26;19999;-64
2024/04/12 05:56:25;;;;;;;8.25;3.08;;;;;;;10.78;62.03;101955.00;11233155;26;19994;-65
2024/04/12 06:01:32;;;;;;;5.80;2.75;;;;;;;10.91;61.85;101960.09;11224228;26;20006;-64
2024/04/12 06:06:34;;;;;;;4.10;2.80;;;;;;;10.97;61.35;101964.94;11215701;26;20018;-64
2024/04/12 06:11:37;;;;;;;5.63;2.63;;;;;;;11.13;61.21;101959.00;11213359;26;20026;-64
2024/04/12 06:16:38;;;;;;;5.03;2.97;;;;;;;11.25;60.87;101968.63;11223195;26;20454;-63
2024/04/12 06:21:45;;;;;;;9.23;3.58;;;;;;;11.42;61.10;101960.88;11264944;21;19999;-88
2024/04/12 06:26:47;;;;;;;5.25;3.33;;;;;;;11.57;60.77;101948.69;11282674;26;19998;-88
2024/04/12 06:31:53;;;;;;;8.32;3.35;;;;;;;11.73;60.91;101953.50;11277729;26;20002;-88
2024/04/12 06:37:05;;;;;;;4.22;3.03;;;;;;;11.87;60.53;101954.88;11251049;26;20009;-88
2024/04/12 06:42:08;;;;;;;8.05;2.72;;;;;;;11.89;60.69;101967.25;11241732;26;19998;-88
2024/04/12 06:47:13;;;;;;;7.82;2.97;;;;;;;12.16;60.08;101959.38;11225137;26;20006;-87
2024/04/12 06:52:22;;;;;;;6.95;2.90;;;;;;;12.25;60.31;101964.72;11245217;26;20015;-87
2024/04/12 06:57:25;;;;;;;5.35;3.00;;;;;;;12.38;60.13;101960.84;11217726;26;20010;-88
2024/04/12 07:02:29;;;;;;;6.15;2.80;;;;;;;12.56;60.25;101959.09;11235325;26;20006;-87
2024/04/12 07:07:37;;;;;;;8.68;3.20;;;;;;;12.86;60.25;101955.22;11253305;26;20011;-87
2024/04/12 07:12:38;;;;;;;5.30;2.28;;;;;;;13.13;59.86;101944.53;11265461;26;20003;-87
2024/04/12 07:17:40;;;;;;;5.03;3.47;;;;;;;13.43;59.53;101935.22;11206279;26;20552;-87
2024/04/12 07:22:42;;;;;;;5.45;3.55;;;;;;;13.57;59.45;101937.38;11234890;26;20488;-87
2024/04/12 07:27:47;;;;;;;9.90;3.17;;;;;;;13.83;59.53;101952.78;11232145;26;20007;-87
2024/04/12 07:32:50;;;;;;;8.85;2.40;;;;;;;14.10;58.99;101940.97;11207349;26;20022;-88
2024/04/12 07:37:54;;;;;;;6.38;2.80;;;;;;;14.34;58.49;101928.56;11226265;26;20133;-88
2024/04/12 07:43:08;;;;;;;8.45;2.25;;;;;;;14.64;58.39;101927.19;11238951;26;21339;-88
2024/04/12 07:48:11;;;;;;;8.88;3.47;;;;;;;14.96;57.40;101923.72;11266047;26;20007;-87
2024/04/12 07:53:23;;;;;;;9.35;2.65;;;;;;;15.29;56.90;101921.06;11265992;26;20018;-88
2024/04/12 07:58:26;;;;;;;6.95;1.60;;;;;;;15.62;56.42;101926.47;11269169;26;20014;-87
2024/04/12 08:03:36;;;;;;;4.45;1.52;;;;;;;15.93;55.74;101918.50;11257030;26;20023;-88
2024/04/12 08:08:44;;;;;;;4.28;1.75;;;;;;;16.19;54.79;101914.72;11236614;26;20012;-88
2024/04/12 08:13:50;;;;;;;6.07;1.90;;;;;;;16.46;54.40;101916.97;11239722;26;20010;-87
2024/04/12 08:18:54;;;;;;;7.07;1.80;;;;;;;16.74;53.81;101915.66;11247250;26;20027;-88
2024/04/12 08:23:57;;;;;;;3.35;1.30;;;;;;;16.94;53.20;101925.09;11269476;26;20377;-88
2024/04/12 08:29:00;;;;;;;5.93;1.13;;;;;;;17.10;53.27;101924.16;11273610;26;20003;-87
2024/04/12 08:34:03;;;;;;;10.68;1.30;;;;;;;17.09;52.86;101925.16;11265957;26;20007;-88
2024/04/12 08:39:25;;;;;;;4.30;1.15;;;;;;;17.36;52.29;101931.09;11271581;26;20375;-88
2024/04/12 08:44:30;;;;;;;6.47;1.38;;;;;;;17.71;51.75;101939.63;11269761;26;20007;-88
2024/04/12 08:49:32;;;;;;;5.78;1.33;;;;;;;17.82;51.73;101922.88;11247946;26;20003;-87
2024/04/12 08:54:41;;;;;;;6.60;1.05;;;;;;;18.04;51.04;101921.97;11276926;26;20011;-87
2024/04/12 08:59:46;;;;;;;3.70;1.13;;;;;;;18.33;50.28;101914.84;11242613;26;20006;-86
2024/04/12 09:04:52;;;;;;;5.60;1.00;;;;;;;18.74;49.92;101914.31;11275299;26;20003;-89
2024/04/12 09:09:54;;;;;;;9.10;2.15;;;;;;;19.14;49.73;101897.59;11214641;26;20007;-88
2024/04/12 09:14:56;;;;;;;6.97;0.93;;;;;;;19.51;49.28;101906.50;11280305;26;20017;-88
2024/04/12 09:19:58;;;;;;;3.22;0.90;;;;;;;19.71;48.87;101896.63;11232951;26;20003;-88
2024/04/12 09:25:14;;;;;;;5.75;0.70;;;;;;;20.04;48.62;101879.63;11235793;26;20003;-88
2024/04/12 09:35:39;;;;;;;2.58;0.80;;;;;;;20.51;47.82;101890.78;11274165;26;20003;-88
2024/04/12 09:40:49;;;;;;;4.68;1.02;;;;;;;20.78;46.93;101889.03;11238067;26;20079;-88
2024/04/12 09:46:05;;;;;;;5.10;0.52;;;;;;;20.91;46.54;101901.84;11242695;26;20003;-88
2024/04/12 10:39:55;;;;;;;3.50;0.47;;;;;;;30.51;30.47;101864.78;11403652;21;20017;-65
2024/04/12 10:45:00;;;;;;;4.75;0.47;;;;;;;28.52;33.26;101856.72;11406455;26;20013;-64
2024/04/12 10:50:02;;;;;;;4.47;0.80;;;;;;;27.85;34.64;101858.59;11383366;26;20046;-63
2024/04/12 10:55:09;;;;;;;3.97;0.60;;;;;;;26.84;35.32;101862.19;11406526;25;20010;-63
2024/04/12 11:00:14;;;;;;;3.88;0.70;;;;;;;25.50;37.49;101875.03;11408445;26;20010;-65
2024/04/12 11:10:39;;;;;;;2.08;0.35;;;;;;;24.16;39.36;101870.56;11399261;26;20089;-66
2024/04/12 11:31:39;;;;;;;1.73;0.10;;;;;;;22.67;42.59;101884.00;11406213;26;20047;-65
2024/04/12 11:36:43;;;;;;;0.40;0.10;;;;;;;27.68;33.65;101866.91;11381546;25;20596;-63
2024/04/12 11:41:45;;;;;;;0.30;0.10;;;;;;;30.58;30.05;101876.47;11337616;26;20003;-66
2024/04/12 11:46:48;;;;;;;0.70;0.10;;;;;;;32.59;27.22;101867.63;11292075;26;20486;-67
2024/04/12 11:51:57;;;;;;;0.30;0.10;;;;;;;34.12;25.49;101866.50;11294600;26;19999;-67
2024/04/12 11:57:00;;;;;;;0.52;0.15;;;;;;;33.83;25.73;101850.69;11287046;26;20010;-68
2024/04/12 12:02:04;;;;;;;0.20;0.10;;;;;;;34.45;25.25;101861.09;11321512;26;20021;-67
2024/04/12 12:07:10;;;;;;;0.35;0.35;;;;;;;33.74;25.78;101856.09;11297415;26;20051;-68
2024/04/12 12:12:12;;;;;;;0.20;0.10;;;;;;;30.94;28.89;101860.72;11286757;26;20006;-67
2024/04/12 12:17:18;;;;;;;0.20;0.10;;;;;;;28.13;32.00;101860.38;11293110;26;20461;-67
2024/04/12 12:22:21;;;;;;;0.10;0.10;;;;;;;29.57;29.99;101850.72;11291789;26;20057;-67
2024/04/12 12:27:23;;;;;;;0.10;0.00;;;;;;;27.56;32.40;101864.22;11291438;26;19999;-67
2024/04/12 12:32:25;;;;;;;0.40;0.10;;;;;;;26.17;34.48;101849.81;11295577;26;20006;-66
2024/04/12 12:37:30;;;;;;;0.10;0.10;;;;;;;27.87;32.62;101837.91;11295846;26;19995;-67
2024/04/12 12:42:32;;;;;;;0.10;0.08;;;;;;;27.40;33.12;101835.53;11291477;26;20326;-66
2024/04/12 12:47:35;;;;;;;0.10;0.10;;;;;;;26.07;34.89;101831.16;11295810;26;20014;-68
2024/04/12 12:52:37;;;;;;;1.30;0.10;;;;;;;26.01;35.22;101815.59;11290141;26;20042;-67
2024/04/12 12:57:39;;;;;;;0.20;0.10;;;;;;;26.77;33.97;101811.84;11334960;26;20079;-66
2024/04/12 13:02:41;;;;;;;0.10;0.00;;;;;;;26.99;34.08;101804.47;11317283;26;20007;-63
2024/04/12 13:07:43;;;;;;;0.50;0.10;;;;;;;28.53;31.90;101800.28;11299715;26;20014;-62
2024/04/12 13:12:51;;;;;;;0.20;0.10;;;;;;;27.83;33.02;101805.50;11331913;26;20003;-63
2024/04/12 13:17:52;;;;;;;0.10;0.10;;;;;;;27.60;33.06;101798.25;11324355;26;20032;-62
2024/04/12 13:22:54;;;;;;;1.95;0.30;;;;;;;27.02;34.18;101804.00;11308655;26;20438;-63
2024/04/12 13:27:56;;;;;;;2.15;0.28;;;;;;;25.38;36.75;101778.66;11323816;26;20002;-65
2024/04/12 13:33:08;;;;;;;0.70;0.20;;;;;;;24.82;37.77;101782.75;11339862;26;20014;-64
2024/04/12 13:38:13;;;;;;;0.10;0.10;;;;;;;24.39;38.45;101764.53;11303265;26;20013;-62
2024/04/12 13:43:16;;;;;;;0.52;0.20;;;;;;;24.28;38.95;101752.44;11331945;26;20013;-64
2024/04/12 13:53:43;;;;;;;0.10;0.10;;;;;;;24.29;39.12;101757.72;11307032;26;19998;-61
2024/04/12 13:59:01;;;;;;;0.30;0.20;;;;;;;23.52;40.64;101760.97;11327040;26;20013;-64
2024/04/12 14:04:04;;;;;;;0.30;0.10;;;;;;;23.39;41.14;101757.53;11327273;26;20014;-67
2024/04/12 14:09:13;;;;;;;0.95;0.20;;;;;;;23.67;40.43;101737.78;11288293;26;19998;-67
2024/04/12 14:14:20;;;;;;;0.15;0.10;;;;;;;23.26;41.17;101740.13;11290911;26;20008;-67
2024/04/12 14:19:21;;;;;;;;;;;;;;;23.09;41.10;101745.34;11291212;26;20021;-67
2024/04/12 14:29:44;;;;;;;1.10;0.10;;;;;;;23.29;41.64;101709.47;11286935;26;20453;-66
2024/04/12 14:34:49;;;;;;;1.10;0.20;;;;;;;23.69;41.12;101721.91;11288737;26;19999;-67
2024/04/12 14:40:06;;;;;;;0.20;0.10;;;;;;;24.20;40.36;101714.31;11326792;25;20460;-66
2024/04/12 14:45:08;;;;;;;0.15;0.10;;;;;;;24.33;40.47;101708.63;11342503;25;20020;-67
2024/04/12 14:50:10;;;;;;;0.30;0.10;;;;;;;23.88;41.08;101723.59;11357235;25;20010;-67
2024/04/12 14:55:13;;;;;;;0.17;0.10;;;;;;;23.62;41.16;101701.91;11359470;25;19998;-66
2024/04/12 15:00:15;;;;;;;1.58;0.10;;;;;;;23.98;40.48;101692.84;11357093;25;20026;-66
2024/04/12 15:47:59;;;;;;;0.57;0.20;;;;;;;23.80;40.40;101679.97;11328604;26;20002;-61
2024/04/12 15:53:22;;;;;;;0.10;0.10;;;;;;;23.75;40.43;101674.31;11297735;26;20002;-59
2024/04/12 16:14:25;;;;;;;0.20;0.10;;;;;;;23.34;41.22;101663.00;11306120;26;20709;-61
2024/04/12 16:19:27;;;;;;;1.42;0.20;;;;;;;23.42;41.22;101661.00;11302754;26;20075;-58
2024/04/12 16:24:28;;;;;;;0.85;0.20;;;;;;;23.53;40.94;101662.97;11303753;26;20014;-59
2024/04/12 16:29:30;;;;;;;1.45;0.20;;;;;;;23.39;41.50;101659.56;11299751;26;20010;-65
2024/04/12 16:34:32;;;;;;;0.45;0.20;;;;;;;23.44;41.68;101646.00;11292305;26;20346;-65
2024/04/12 16:39:33;;;;;;;2.47;0.20;;;;;;;23.54;41.92;101628.97;11290125;26;20023;-66
2024/04/12 16:44:35;;;;;;;0.98;0.20;;;;;;;23.61;41.38;101634.38;11303499;26;19995;-66
2024/04/12 16:49:37;;;;;;;0.88;0.40;;;;;;;23.29;42.44;101638.13;11262693;26;20002;-67
2024/04/12 16:54:38;;;;;;;2.83;0.47;;;;;;;23.35;42.12;101636.38;11292607;26;20017;-67
2024/04/12 16:59:40;;;;;;;0.93;0.50;;;;;;;23.23;42.73;101641.78;11298631;26;20017;-67
2024/04/12 17:04:41;;;;;;;1.73;0.30;;;;;;;23.10;43.32;101631.78;11297357;26;20006;-64
2024/04/12 17:09:45;;;;;;;0.85;0.20;;;;;;;22.84;43.20;101632.06;11285782;26;20100;-66
2024/04/12 17:14:47;;;;;;;0.63;0.20;;;;;;;22.70;43.99;101629.44;11291339;26;19995;-66
2024/04/12 17:19:49;;;;;;;1.48;0.20;;;;;;;22.58;43.71;101618.38;11289190;26;20024;-68
2024/04/12 17:24:51;;;;;;;2.95;0.30;;;;;;;22.54;44.05;101602.63;11253851;26;20446;-66
2024/04/12 17:29:53;;;;;;;1.00;0.22;;;;;;;22.38;44.16;101612.25;11292338;26;20011;-67
2024/04/12 17:34:55;;;;;;;1.95;0.60;;;;;;;22.20;44.90;101626.69;11290159;26;19998;-59
2024/04/12 17:39:56;;;;;;;2.85;0.50;;;;;;;21.78;45.08;101626.28;11269553;26;20013;-59
2024/04/12 17:44:58;;;;;;;1.40;0.30;;;;;;;21.56;45.69;101623.91;11296959;26;20002;-59
2024/04/12 17:50:00;;;;;;;1.88;1.02;;;;;;;21.39;45.91;101619.94;11300804;26;20757;-59
2024/04/12 17:55:02;;;;;;;0.80;0.30;;;;;;;21.23;46.30;101607.59;11275043;26;20038;-59
2024/04/12 18:00:07;;;;;;;1.73;0.30;;;;;;;21.22;46.15;101602.34;11287233;26;20015;-60
2024/04/12 18:05:10;;;;;;;1.40;0.35;;;;;;;21.13;46.23;101602.59;11303326;26;19999;-59
2024/04/12 18:10:12;;;;;;;0.47;0.20;;;;;;;21.00;46.65;101610.81;11301800;26;20013;-58
2024/04/12 18:15:16;;;;;;;1.27;0.30;;;;;;;20.79;46.90;101611.91;11302808;26;20031;-58
2024/04/12 18:20:20;;;;;;;0.68;0.30;;;;;;;20.58;47.56;101610.22;11296296;26;20040;-59
2024/04/12 18:25:21;;;;;;;2.05;0.30;;;;;;;20.41;47.52;101610.66;11272606;26;20021;-59
2024/04/12 18:30:23;;;;;;;1.23;0.22;;;;;;;20.23;48.21;101615.91;11295183;26;20049;-61
2024/04/12 18:35:28;;;;;;;0.50;0.30;;;;;;;20.07;48.16;101616.31;11291493;26;20003;-60
2024/04/12 18:45:50;;;;;;;2.35;0.40;;;;;;;19.83;48.71;101624.03;11293272;26;20014;-61
2024/04/12 18:50:52;;;;;;;3.85;0.80;;;;;;;19.67;49.34;101621.63;11288568;26;20469;-61
2024/04/12 18:55:54;;;;;;;2.70;0.73;;;;;;;19.54;48.93;101623.28;11290354;26;19997;-61
2024/04/12 19:00:55;;;;;;;2.20;0.70;;;;;;;19.34;49.53;101616.91;11289340;26;20005;-61
2024/04/12 19:06:04;;;;;;;2.58;0.65;;;;;;;19.18;49.74;101618.91;11296543;26;20007;-60
2024/04/12 19:11:10;;;;;;;4.00;0.70;;;;;;;18.99;50.59;101623.22;11260346;26;20003;-61
2024/04/12 19:16:12;;;;;;;3.25;1.00;;;;;;;18.83;50.88;101620.81;11292182;26;20013;-61
2024/04/12 19:21:14;;;;;;;3.85;1.73;;;;;;;18.66;51.21;101625.69;11254923;26;20036;-62
2024/04/12 19:26:18;;;;;;;10.20;3.63;;;;;;;18.48;51.76;101617.16;11259544;26;19995;-60
2024/04/12 19:31:19;;;;;;;7.22;3.92;;;;;;;18.33;52.31;101626.25;11253119;26;20002;-61
2024/04/12 19:36:21;;;;;;;5.43;4.18;;;;;;;18.15;53.03;101626.72;11282504;26;20237;-61
2024/04/12 19:41:23;;;;;;;4.68;2.15;;;;;;;17.84;53.58;101624.31;11283123;26;19995;-60
2024/04/12 19:46:24;;;;;;;2.45;0.93;;;;;;;17.74;53.90;101621.03;11270008;26;19998;-61
2024/04/12 19:51:29;;;;;;;4.25;1.60;;;;;;;17.61;54.62;101627.16;11291391;26;20014;-61
2024/04/12 19:56:30;;;;;;;3.70;1.60;;;;;;;17.54;54.59;101618.09;11286355;26;20003;-58
2024/04/12 20:01:32;;;;;;;2.33;1.55;;;;;;;17.44;54.67;101616.50;11281365;26;20453;-59
2024/04/12 20:06:39;;;;;;;4.88;2.67;;;;;;;17.38;55.15;101627.31;11245755;26;20071;-62
2024/04/12 20:11:41;;;;;;;;;;;;;;;17.25;54.57;101617.94;11291142;26;19998;-59
2024/04/12 20:16:45;;;;;;;4.70;2.90;;;;;;;17.12;55.41;101615.06;11260735;26;19924;-60
2024/04/12 20:21:49;;;;;;;6.57;3.45;;;;;;;16.96;55.89;101615.22;11260406;26;20461;-60
2024/04/12 20:26:51;;;;;;;8.32;5.22;;;;;;;16.84;56.17;101612.13;11275796;26;20229;-60
2024/04/12 20:31:55;;;;;;;6.47;3.92;;;;;;;16.72;56.49;101617.13;11264028;26;20061;-62
2024/04/12 20:36:57;;;;;;;7.65;3.42;;;;;;;16.60;57.06;101618.63;11303250;25;19997;-62
2024/04/12 20:41:59;;;;;;;11.13;3.85;;;;;;;16.53;56.85;101620.38;11369334;25;20010;-60
2024/04/12 20:47:01;;;;;;;5.65;3.20;;;;;;;16.42;57.14;101618.97;11366641;25;20016;-59
2024/04/12 20:52:06;;;;;;;8.45;4.72;;;;;;;16.33;57.60;101607.34;11338672;25;20502;-60
2024/04/12 20:57:08;;;;;;;13.35;7.03;;;;;;;16.23;57.95;101620.28;11361296;25;20045;-59
2024/04/12 21:02:10;;;;;;;10.43;5.30;;;;;;;16.11;58.30;101611.75;11352511;25;20002;-59
2024/04/12 21:07:11;;;;;;;9.32;4.35;;;;;;;16.02;58.38;101610.97;11323542;25;20326;-61
2024/04/12 21:12:14;;;;;;;8.63;3.70;;;;;;;15.92;58.70;101604.13;11363068;25;20025;-62
2024/04/12 21:17:16;;;;;;;9.43;3.13;;;;;;;15.88;58.66;101602.75;11341092;25;20642;-62
2024/04/12 21:22:17;;;;;;;6.88;2.40;;;;;;;15.81;59.05;101606.19;11360932;25;20081;-62
2024/04/12 21:27:19;;;;;;;5.63;3.45;;;;;;;15.70;59.58;101603.88;11300704;25;19997;-62
2024/04/12 21:32:22;;;;;;;8.55;4.28;;;;;;;15.59;60.05;101612.41;11327461;25;20012;-62
2024/04/12 21:37:23;;;;;;;11.27;4.00;;;;;;;15.50;60.07;101606.19;11298427;25;22651;-62
2024/04/12 21:42:27;;;;;;;6.97;4.00;;;;;;;15.42;60.12;101604.38;11283646;26;20003;-62
2024/04/12 21:47:29;;;;;;;5.97;2.90;;;;;;;15.29;60.76;101609.50;11288627;26;20043;-62
2024/04/12 21:52:30;;;;;;;4.75;1.63;;;;;;;15.17;61.16;101611.75;11281870;26;20002;-61
2024/04/12 21:57:33;;;;;;;5.07;1.70;;;;;;;15.16;60.60;101618.19;11291898;26;20078;-62
2024/04/12 22:02:34;;;;;;;2.20;1.02;;;;;;;15.01;61.13;101604.53;11286540;26;20017;-61
2024/04/12 22:07:37;;;;;;;2.15;1.13;;;;;;;14.96;61.70;101611.47;11287774;26;20002;-61
2024/04/12 22:12:38;;;;;;;2.08;1.05;;;;;;;14.94;61.32;101613.53;11281626;26;19999;-62
2024/04/12 22:17:40;;;;;;;1.98;1.10;;;;;;;14.90;61.60;101604.91;11288186;26;20350;-61
2024/04/12 22:22:42;;;;;;;1.65;1.30;;;;;;;14.95;61.41;101607.94;11292300;26;20470;-61
2024/04/12 22:27:43;;;;;;;3.47;1.70;;;;;;;14.97;61.77;101594.19;11263600;26;19999;-62
2024/04/12 22:32:45;;;;;;;4.88;2.33;;;;;;;14.89;61.92;101586.97;11302116;26;20013;-62
2024/04/12 22:37:48;;;;;;;4.32;3.00;;;;;;;14.85;62.09;101599.19;11254133;26;20095;-59
2024/04/12 22:42:49;;;;;;;6.43;3.22;;;;;;;14.80;61.76;101596.13;11289189;26;20007;-60
2024/04/12 22:47:51;;;;;;;5.78;2.28;;;;;;;14.77;61.87;101596.47;11288853;26;20078;-60
2024/04/12 22:52:53;;;;;;;3.47;2.00;;;;;;;14.71;62.30;101576.38;11283558;26;20017;-60
2024/04/12 22:57:54;;;;;;;8.00;2.80;;;;;;;14.65;62.45;101577.03;11278789;26;20003;-59
2024/04/12 23:02:56;;;;;;;2.85;2.08;;;;;;;14.64;62.73;101575.38;11294217;26;20017;-59
2024/04/12 23:07:59;;;;;;;5.80;2.90;;;;;;;14.61;62.42;101575.69;11284820;26;20046;-60
2024/04/12 23:13:01;;;;;;;6.32;2.47;;;;;;;14.58;62.85;101562.53;11286667;26;20825;-60
2024/04/12 23:18:02;;;;;;;8.43;3.80;;;;;;;14.57;63.03;101572.47;11288886;26;20030;-63
2024/04/12 23:23:04;;;;;;;8.02;4.38;;;;;;;14.48;62.67;101577.03;11281706;26;20006;-60
2024/04/12 23:28:12;;;;;;;12.98;5.18;;;;;;;14.42;63.08;101579.59;11292236;26;20002;-63
2024/04/12 23:33:14;;;;;;;7.20;3.75;;;;;;;14.36;63.32;101578.41;11289559;26;20002;-61
2024/04/12 23:38:15;;;;;;;7.57;3.42;;;;;;;14.24;63.42;101571.69;11291242;26;20017;-61
2024/04/12 23:43:17;;;;;;;7.38;3.58;;;;;;;14.11;63.58;101582.97;11270859;26;20002;-60
2024/04/12 23:48:18;;;;;;;4.88;2.25;;;;;;;14.07;63.82;101579.75;11290893;26;20010;-60
2024/04/12 23:53:20;;;;;;;6.50;3.20;;;;;;;14.07;63.54;101574.34;11262205;26;19998;-61
2024/04/12 23:58:22;;;;;;;7.32;2.75;;;;;;;14.03;63.83;101569.47;11287521;26;19999;-63
